Time;durP1;ratioP1;P1;durP2;ratioP2;P2;SDS_P1;SDS_P2;PMS_P1;PMS_P2;Temp;Humidity;BMP_temperature;BMP_pressure;BME280_temperature;BME280_humidity;BME280_pressure;Samples;Min_cycle;Max_cycle;Signal;HPM_P1;HPM_P2
2023/05/30 00:00:33;;;;;;;22.23;7.27;;;11.80;99.90;;;;;;4962544;29;20477;-82
2023/05/30 00:03:04;;;;;;;13.23;6.20;;;11.80;99.90;;;;;;4961839;29;20447;-84
2023/05/30 00:05:32;;;;;;;17.63;6.77;;;11.80;99.90;;;;;;4962577;29;20494;-83
2023/05/30 00:08:02;;;;;;;16.93;7.03;;;11.70;99.90;;;;;;4962095;29;20459;-84
2023/05/30 00:10:30;;;;;;;16.27;7.17;;;11.70;99.90;;;;;;4962135;29;20502;-83
2023/05/30 00:12:59;;;;;;;17.50;6.60;;;11.70;99.90;;;;;;4962762;29;20529;-83
2023/05/30 00:15:28;;;;;;;13.50;6.07;;;11.70;99.90;;;;;;4961898;29;20956;-82
2023/05/30 00:17:57;;;;;;;17.53;6.90;;;11.70;99.90;;;;;;4962131;29;20668;-81
2023/05/30 00:20:29;;;;;;;14.60;7.17;;;11.70;99.90;;;;;;4961262;29;20458;-84
2023/05/30 00:22:59;;;;;;;14.27;6.03;;;11.70;99.90;;;;;;4961108;29;20537;-83
2023/05/30 00:25:29;;;;;;;16.30;6.50;;;11.70;99.90;;;;;;4960895;29;20474;-84
2023/05/30 00:27:58;;;;;;;10.40;6.10;;;11.70;99.90;;;;;;4961942;29;20458;-82
2023/05/30 00:30:26;;;;;;;16.10;6.70;;;11.70;99.90;;;;;;4961746;29;20501;-83
2023/05/30 00:32:55;;;;;;;13.80;6.33;;;11.60;99.90;;;;;;4960790;29;20481;-83
2023/05/30 00:35:26;;;;;;;13.17;5.80;;;11.60;99.90;;;;;;4960098;29;20501;-82
2023/05/30 00:37:54;;;;;;;12.47;6.30;;;11.60;99.90;;;;;;4960842;29;20960;-83
2023/05/30 00:40:22;;;;;;;15.07;6.27;;;11.60;99.90;;;;;;4960306;29;20870;-83
2023/05/30 00:42:52;;;;;;;13.30;6.37;;;11.60;99.90;;;;;;4960566;29;20450;-83
2023/05/30 00:45:20;;;;;;;17.03;6.77;;;11.60;99.90;;;;;;4960676;29;20458;-82
2023/05/30 00:47:50;;;;;;;15.23;7.00;;;11.60;99.90;;;;;;4959918;29;20455;-82
2023/05/30 00:50:19;;;;;;;11.27;5.93;;;11.60;99.90;;;;;;4961344;29;20474;-83
2023/05/30 00:52:49;;;;;;;20.43;7.60;;;11.60;99.90;;;;;;4965669;29;20482;-83
2023/05/30 00:55:17;;;;;;;14.63;5.70;;;11.60;99.90;;;;;;4964515;29;20447;-83
2023/05/30 00:57:46;;;;;;;13.90;5.80;;;11.60;99.90;;;;;;4965498;29;20458;-83
2023/05/30 01:00:17;;;;;;;10.80;5.90;;;11.60;99.90;;;;;;4963385;28;20454;-84
2023/05/30 01:02:47;;;;;;;17.63;6.93;;;11.60;99.90;;;;;;4964826;29;20452;-83
2023/05/30 01:05:15;;;;;;;13.20;6.73;;;11.60;99.90;;;;;;4963716;29;20481;-83
2023/05/30 01:07:44;;;;;;;12.37;6.13;;;11.60;99.90;;;;;;4962998;29;20443;-83
2023/05/30 01:10:14;;;;;;;13.57;5.63;;;11.60;99.90;;;;;;4963164;28;20446;-82
2023/05/30 01:12:47;;;;;;;15.50;5.93;;;11.60;99.90;;;;;;4963365;29;20478;-82
2023/05/30 01:15:22;;;;;;;11.50;5.83;;;11.60;99.90;;;;;;4962184;29;20454;-85
2023/05/30 01:17:57;;;;;;;14.07;6.40;;;11.60;99.90;;;;;;4962132;29;20450;-82
2023/05/30 01:20:27;;;;;;;15.33;6.37;;;11.50;99.90;;;;;;4962413;29;20454;-83
2023/05/30 01:23:36;;;;;;;11.23;6.00;;;11.60;99.90;;;;;;4962480;29;20890;-83
2023/05/30 01:26:14;;;;;;;15.30;6.33;;;11.50;99.90;;;;;;4961589;29;20842;-82
2023/05/30 01:28:46;;;;;;;14.97;5.80;;;11.60;99.90;;;;;;4961902;29;20470;-83
2023/05/30 01:31:14;;;;;;;13.00;6.17;;;11.60;99.90;;;;;;4961673;29;20579;-83
2023/05/30 01:33:45;;;;;;;15.43;6.60;;;11.60;99.90;;;;;;4960318;29;20450;-83
2023/05/30 01:36:14;;;;;;;15.87;6.77;;;11.50;99.90;;;;;;4961240;29;20479;-83
2023/05/30 01:38:42;;;;;;;16.33;7.00;;;11.50;99.90;;;;;;4961001;29;20546;-82
2023/05/30 01:41:18;;;;;;;12.77;5.90;;;11.50;99.90;;;;;;4961519;29;20443;-82
2023/05/30 01:43:53;;;;;;;16.93;7.60;;;11.50;99.90;;;;;;4961260;29;20501;-84
2023/05/30 01:46:29;;;;;;;13.53;6.03;;;11.50;99.90;;;;;;4960757;29;20513;-83
2023/05/30 01:49:06;;;;;;;14.37;6.20;;;11.50;99.90;;;;;;4961961;29;20447;-83
2023/05/30 01:51:41;;;;;;;11.90;6.50;;;11.50;99.90;;;;;;4961253;29;20605;-83
2023/05/30 01:54:12;;;;;;;17.67;6.80;;;11.50;99.90;;;;;;4962529;29;20423;-82
2023/05/30 01:56:43;;;;;;;12.73;6.53;;;11.50;99.90;;;;;;4961116;29;20482;-83
2023/05/30 01:59:12;;;;;;;10.00;5.93;;;11.50;99.90;;;;;;4961222;29;20450;-83
2023/05/30 02:01:42;;;;;;;11.40;6.20;;;11.50;99.90;;;;;;4960554;29;20454;-82
2023/05/30 02:04:11;;;;;;;12.20;6.30;;;11.50;99.90;;;;;;4960210;29;20525;-83
2023/05/30 02:06:39;;;;;;;11.10;6.40;;;11.50;99.90;;;;;;4959807;29;20565;-83
2023/05/30 02:09:07;;;;;;;15.67;5.80;;;11.50;99.90;;;;;;4959808;29;20447;-83
2023/05/30 02:11:35;;;;;;;12.47;5.83;;;11.50;99.90;;;;;;4961432;28;20508;-83
2023/05/30 02:14:05;;;;;;;14.57;7.00;;;11.40;99.90;;;;;;4963327;29;20450;-83
2023/05/30 02:16:34;;;;;;;14.00;6.47;;;11.40;99.90;;;;;;4963302;29;20477;-82
2023/05/30 02:19:03;;;;;;;10.33;6.40;;;11.40;99.90;;;;;;4962931;28;20462;-83
2023/05/30 02:21:31;;;;;;;15.23;6.90;;;11.40;99.90;;;;;;4964723;29;20442;-82
2023/05/30 02:23:59;;;;;;;11.13;6.63;;;11.40;99.90;;;;;;4962650;29;20450;-82
2023/05/30 02:26:28;;;;;;;14.10;6.10;;;11.40;99.90;;;;;;4961992;29;20561;-84
2023/05/30 02:28:56;;;;;;;12.93;6.23;;;11.40;99.90;;;;;;4963763;29;20442;-83
2023/05/30 02:31:24;;;;;;;12.53;5.97;;;11.30;99.90;;;;;;4963552;29;20474;-83
2023/05/30 02:33:54;;;;;;;14.03;5.50;;;11.30;99.90;;;;;;4961750;29;20557;-83
2023/05/30 02:36:22;;;;;;;12.57;6.40;;;11.30;99.90;;;;;;4962372;29;20467;-82
2023/05/30 02:38:51;;;;;;;14.33;6.40;;;11.30;99.90;;;;;;4961423;29;20454;-83
2023/05/30 02:41:20;;;;;;;14.50;7.00;;;11.30;99.90;;;;;;4961757;29;20537;-82
2023/05/30 02:43:48;;;;;;;13.77;6.63;;;11.30;99.90;;;;;;4963396;29;20451;-83
2023/05/30 02:46:16;;;;;;;18.10;7.80;;;11.20;99.90;;;;;;4968494;29;20487;-83
2023/05/30 02:48:45;;;;;;;15.37;6.77;;;11.20;99.90;;;;;;4967477;29;20445;-83
2023/05/30 02:51:15;;;;;;;10.90;5.70;;;11.20;99.90;;;;;;4967511;29;20530;-83
2023/05/30 02:53:44;;;;;;;15.20;6.33;;;11.20;99.90;;;;;;4967881;29;20443;-83
2023/05/30 02:56:16;;;;;;;16.53;7.37;;;11.20;99.90;;;;;;4967093;29;20498;-83
2023/05/30 02:58:44;;;;;;;14.03;6.77;;;11.20;99.90;;;;;;4967680;29;20439;-83
2023/05/30 03:01:33;;;;;;;11.27;6.00;;;11.20;99.90;;;;;;4966437;29;21006;-83
2023/05/30 03:04:02;;;;;;;14.10;6.03;;;11.10;99.90;;;;;;4965512;29;20574;-82
2023/05/30 03:06:41;;;;;;;12.30;6.77;;;11.10;99.90;;;;;;4965607;29;20482;-82
2023/05/30 03:09:24;;;;;;;18.00;7.37;;;11.10;99.90;;;;;;4964636;29;20451;-83
2023/05/30 03:11:52;;;;;;;13.87;7.83;;;11.10;99.90;;;;;;4964980;28;20983;-84
2023/05/30 03:14:21;;;;;;;11.67;6.93;;;11.10;99.90;;;;;;4964058;29;20454;-83
2023/05/30 03:16:49;;;;;;;17.90;7.83;;;11.10;99.90;;;;;;4965132;29;20561;-83
2023/05/30 03:19:18;;;;;;;14.70;7.37;;;11.00;99.90;;;;;;4964174;29;20478;-83
2023/05/30 03:21:49;;;;;;;17.10;7.70;;;11.00;99.90;;;;;;4963796;29;20533;-83
2023/05/30 03:24:20;;;;;;;12.57;7.10;;;11.00;99.90;;;;;;4962784;28;20470;-83
2023/05/30 03:26:49;;;;;;;14.40;7.13;;;11.10;99.90;;;;;;4963860;29;20545;-83
2023/05/30 03:29:18;;;;;;;15.13;6.77;;;11.00;99.90;;;;;;4962714;29;20447;-83
2023/05/30 03:31:47;;;;;;;16.40;6.97;;;11.00;99.90;;;;;;4962593;29;20992;-83
2023/05/30 03:34:15;;;;;;;12.73;7.00;;;11.00;99.90;;;;;;4962376;29;20473;-83
2023/05/30 03:36:46;;;;;;;14.27;7.60;;;11.00;99.90;;;;;;4962172;29;20522;-84
2023/05/30 03:39:16;;;;;;;17.47;8.23;;;11.00;99.90;;;;;;4961898;29;20452;-83
2023/05/30 03:41:44;;;;;;;16.30;8.03;;;11.00;99.90;;;;;;4963185;29;20478;-83
2023/05/30 03:44:13;;;;;;;15.60;7.33;;;11.10;99.90;;;;;;4961571;29;20956;-83
2023/05/30 03:46:41;;;;;;;10.70;5.70;;;11.10;99.90;;;;;;4961439;29;20478;-84
2023/05/30 03:49:09;;;;;;;12.90;7.20;;;11.10;99.90;;;;;;4960905;29;20458;-83
2023/05/30 03:51:37;;;;;;;14.50;6.27;;;11.10;99.90;;;;;;4962514;29;20497;-82
2023/05/30 03:54:08;;;;;;;13.50;7.30;;;11.10;99.90;;;;;;4960822;29;20450;-83
2023/05/30 03:56:37;;;;;;;11.30;6.23;;;11.10;99.90;;;;;;4961686;29;20569;-83
2023/05/30 03:59:08;;;;;;;14.67;6.90;;;11.10;99.90;;;;;;4961282;29;20443;-83
2023/05/30 04:01:37;;;;;;;13.60;7.10;;;11.10;99.90;;;;;;4962210;29;20454;-83
2023/05/30 04:04:05;;;;;;;11.83;7.00;;;11.20;99.90;;;;;;4961291;29;20477;-83
2023/05/30 04:06:36;;;;;;;13.83;6.90;;;11.20;99.90;;;;;;4960859;29;20478;-83
2023/05/30 04:09:05;;;;;;;15.27;7.10;;;11.20;99.90;;;;;;4960996;29;20454;-83
2023/05/30 04:11:33;;;;;;;16.40;7.20;;;11.20;99.90;;;;;;4959943;29;20980;-83
2023/05/30 04:14:04;;;;;;;15.10;7.00;;;11.20;99.90;;;;;;4960590;29;20471;-83
2023/05/30 04:16:32;;;;;;;14.53;6.93;;;11.20;99.90;;;;;;4959265;29;20493;-83
2023/05/30 04:19:01;;;;;;;17.43;7.40;;;11.30;99.90;;;;;;4960671;29;20829;-83
2023/05/30 04:21:29;;;;;;;16.03;7.70;;;11.30;99.90;;;;;;4962134;29;20442;-84
2023/05/30 04:23:57;;;;;;;11.87;6.40;;;11.30;99.90;;;;;;4959835;29;20474;-83
2023/05/30 04:26:26;;;;;;;12.10;6.90;;;11.30;99.90;;;;;;4960141;29;20478;-83
2023/05/30 04:28:56;;;;;;;15.37;7.23;;;11.30;99.90;;;;;;4960607;29;20509;-83
2023/05/30 04:31:27;;;;;;;16.07;7.40;;;11.30;99.90;;;;;;4961658;29;20439;-83
2023/05/30 04:33:55;;;;;;;14.37;7.50;;;11.40;99.90;;;;;;4960036;28;20612;-82
2023/05/30 04:36:24;;;;;;;12.97;7.07;;;11.30;99.90;;;;;;4964368;29;20550;-84
2023/05/30 04:38:53;;;;;;;19.47;7.80;;;11.40;99.90;;;;;;4967355;29;20447;-82
2023/05/30 04:41:25;;;;;;;13.20;6.57;;;11.40;99.90;;;;;;4965217;29;20872;-83
2023/05/30 04:43:57;;;;;;;18.80;7.47;;;11.50;99.90;;;;;;4965468;29;20817;-82
2023/05/30 04:46:28;;;;;;;13.50;6.90;;;11.50;99.90;;;;;;4964854;29;20483;-83
2023/05/30 04:49:00;;;;;;;16.97;7.50;;;11.50;99.90;;;;;;4965855;29;20447;-83
2023/05/30 04:51:32;;;;;;;17.07;7.43;;;11.50;99.90;;;;;;4963818;29;20450;-82
2023/05/30 04:54:01;;;;;;;15.50;8.00;;;11.50;99.90;;;;;;4962758;29;20534;-83
2023/05/30 04:56:29;;;;;;;16.47;8.07;;;11.50;99.90;;;;;;4961907;29;20553;-82
2023/05/30 04:58:58;;;;;;;12.00;7.00;;;11.60;99.90;;;;;;4965427;29;20450;-83
2023/05/30 05:01:27;;;;;;;11.80;7.30;;;11.60;99.90;;;;;;4963494;29;20461;-82
2023/05/30 05:03:56;;;;;;;16.10;8.27;;;11.60;99.90;;;;;;4964266;29;20439;-83
2023/05/30 05:06:24;;;;;;;10.50;6.60;;;11.60;99.90;;;;;;4962148;29;20509;-83
2023/05/30 05:08:52;;;;;;;15.63;7.80;;;11.70;99.90;;;;;;4963018;29;20538;-82
2023/05/30 05:11:21;;;;;;;14.67;7.20;;;11.70;99.90;;;;;;4962502;29;20465;-83
2023/05/30 05:13:49;;;;;;;14.60;7.23;;;11.70;99.90;;;;;;4962820;29;20470;-82
2023/05/30 05:16:17;;;;;;;17.17;7.80;;;11.70;99.90;;;;;;4963358;29;20806;-83
2023/05/30 05:18:47;;;;;;;15.60;7.33;;;11.70;99.90;;;;;;4962295;29;20458;-83
2023/05/30 05:21:16;;;;;;;15.43;8.00;;;11.80;99.90;;;;;;4962921;29;20438;-83
2023/05/30 05:23:44;;;;;;;15.00;8.07;;;11.80;99.90;;;;;;4961338;29;20446;-82
2023/05/30 05:26:12;;;;;;;15.83;7.60;;;11.80;99.90;;;;;;4961704;29;20569;-83
2023/05/30 05:28:40;;;;;;;14.40;6.93;;;11.90;99.90;;;;;;4961036;29;20454;-83
2023/05/30 05:31:09;;;;;;;14.57;6.90;;;11.90;99.90;;;;;;4961206;29;20869;-83
2023/05/30 05:33:37;;;;;;;14.30;6.53;;;11.90;99.90;;;;;;4960629;29;20506;-83
2023/05/30 05:36:07;;;;;;;19.27;6.73;;;11.90;99.90;;;;;;4960750;29;20475;-83
2023/05/30 05:38:35;;;;;;;11.67;4.83;;;12.00;99.90;;;;;;4962768;29;21018;-83
2023/05/30 05:41:03;;;;;;;11.97;4.93;;;12.00;99.90;;;;;;4960521;29;20475;-85
2023/05/30 05:43:31;;;;;;;12.43;5.13;;;12.10;99.90;;;;;;4960867;29;21035;-84
2023/05/30 05:45:59;;;;;;;8.40;4.03;;;12.10;99.90;;;;;;4960247;28;20485;-85
2023/05/30 05:48:30;;;;;;;13.27;4.97;;;12.10;99.90;;;;;;4963540;29;20473;-84
2023/05/30 05:50:58;;;;;;;10.47;4.33;;;12.10;99.90;;;;;;4965135;29;20478;-83
2023/05/30 05:53:29;;;;;;;11.60;5.70;;;12.20;99.90;;;;;;4963783;29;20478;-83
2023/05/30 05:55:57;;;;;;;14.13;5.10;;;12.20;99.90;;;;;;4963221;29;20477;-84
2023/05/30 05:58:26;;;;;;;9.27;5.23;;;12.20;99.90;;;;;;4963319;29;20477;-84
2023/05/30 06:00:54;;;;;;;12.20;5.50;;;12.30;99.90;;;;;;4964023;29;20442;-87
2023/05/30 06:03:22;;;;;;;8.33;4.80;;;12.20;99.90;;;;;;4962036;29;20455;-85
2023/05/30 06:05:51;;;;;;;9.23;4.80;;;12.30;99.90;;;;;;4961947;29;20462;-84
2023/05/30 06:08:19;;;;;;;9.07;4.90;;;12.30;99.90;;;;;;4962022;29;20491;-84
2023/05/30 06:10:51;;;;;;;11.50;4.63;;;12.40;99.90;;;;;;4963565;28;20446;-84
2023/05/30 06:13:24;;;;;;;11.80;5.20;;;12.40;99.90;;;;;;4961763;29;20462;-83
2023/05/30 06:15:52;;;;;;;12.00;5.83;;;12.40;99.90;;;;;;4959077;29;20505;-85
2023/05/30 06:18:21;;;;;;;13.43;5.57;;;12.40;99.90;;;;;;4960436;29;20458;-83
2023/05/30 06:20:52;;;;;;;9.10;5.20;;;12.40;99.90;;;;;;4963170;29;20446;-83
2023/05/30 06:23:21;;;;;;;8.53;4.97;;;12.50;99.90;;;;;;4962795;29;20461;-83
2023/05/30 06:25:50;;;;;;;11.70;5.63;;;12.50;99.90;;;;;;4962784;29;20474;-83
2023/05/30 06:28:19;;;;;;;8.00;4.40;;;12.50;99.90;;;;;;4965505;29;20455;-83
2023/05/30 06:30:47;;;;;;;9.67;4.73;;;12.50;99.90;;;;;;4966000;29;20517;-84
2023/05/30 06:33:15;;;;;;;9.27;4.40;;;12.50;99.90;;;;;;4964249;29;20485;-84
2023/05/30 06:35:43;;;;;;;9.80;5.23;;;12.50;99.90;;;;;;4966029;29;20469;-84
2023/05/30 06:38:11;;;;;;;12.00;5.00;;;12.60;99.90;;;;;;4964051;29;20473;-84
2023/05/30 06:40:42;;;;;;;11.20;4.57;;;12.50;99.90;;;;;;4964416;29;20506;-84
2023/05/30 06:43:11;;;;;;;9.27;4.47;;;12.60;99.90;;;;;;4966136;29;20960;-83
2023/05/30 06:45:41;;;;;;;9.33;4.60;;;12.60;99.90;;;;;;4965923;29;20481;-83
2023/05/30 06:48:10;;;;;;;10.40;4.77;;;12.60;99.90;;;;;;4966406;29;20543;-84
2023/05/30 06:50:38;;;;;;;8.67;4.03;;;12.60;99.90;;;;;;4965170;29;20455;-85
2023/05/30 06:53:07;;;;;;;10.17;4.53;;;12.60;99.90;;;;;;4965623;29;20463;-83
2023/05/30 06:55:35;;;;;;;10.10;4.97;;;12.60;99.90;;;;;;4967902;29;20478;-84
2023/05/30 06:58:05;;;;;;;11.63;4.23;;;12.60;99.90;;;;;;4963670;28;20787;-86
2023/05/30 07:00:35;;;;;;;11.17;5.73;;;12.60;99.90;;;;;;4964399;29;20462;-84
2023/05/30 07:03:05;;;;;;;8.70;4.70;;;12.60;99.90;;;;;;4963346;29;20450;-86
2023/05/30 07:05:33;;;;;;;11.07;5.53;;;12.70;99.90;;;;;;4962862;29;20475;-84
2023/05/30 07:08:01;;;;;;;10.30;5.13;;;12.70;99.90;;;;;;4962965;29;20443;-81
2023/05/30 07:10:30;;;;;;;8.90;4.87;;;12.70;99.90;;;;;;4963948;29;21014;-83
2023/05/30 07:12:58;;;;;;;10.87;5.40;;;12.70;99.90;;;;;;4963026;29;20526;-83
2023/05/30 07:15:28;;;;;;;12.30;5.40;;;12.70;99.90;;;;;;4959993;29;20481;-83
2023/05/30 07:17:57;;;;;;;10.97;5.00;;;12.80;99.90;;;;;;4959535;29;20461;-81
2023/05/30 07:20:26;;;;;;;13.23;5.90;;;12.80;99.90;;;;;;4959609;29;20469;-83
2023/05/30 07:22:55;;;;;;;9.87;5.00;;;12.80;99.90;;;;;;4960244;29;20534;-82
2023/05/30 07:25:23;;;;;;;11.17;5.10;;;12.80;99.90;;;;;;4960427;29;20861;-82
2023/05/30 07:27:51;;;;;;;13.00;5.90;;;12.80;99.90;;;;;;4959585;29;20479;-82
2023/05/30 07:30:20;;;;;;;10.20;5.43;;;12.80;99.90;;;;;;4959348;29;20549;-81
2023/05/30 07:32:48;;;;;;;11.57;6.23;;;12.80;99.90;;;;;;4959606;29;20956;-82
2023/05/30 07:35:18;;;;;;;8.20;5.20;;;12.90;99.90;;;;;;4959934;29;20473;-79
2023/05/30 07:37:46;;;;;;;11.73;5.37;;;12.80;99.90;;;;;;4958920;29;20479;-83
2023/05/30 07:40:17;;;;;;;10.83;5.50;;;12.80;99.90;;;;;;4959287;29;20526;-81
2023/05/30 07:42:46;;;;;;;9.23;5.13;;;12.80;99.90;;;;;;4958227;29;20545;-80
2023/05/30 07:45:15;;;;;;;13.13;4.90;;;12.90;99.90;;;;;;4959614;29;20484;-81
2023/05/30 07:47:43;;;;;;;10.93;4.80;;;12.90;99.90;;;;;;4959477;29;20446;-83
2023/05/30 07:50:11;;;;;;;9.50;5.30;;;12.90;99.90;;;;;;4961924;29;20455;-82
2023/05/30 07:52:41;;;;;;;10.37;5.30;;;12.90;99.90;;;;;;4961308;29;20442;-82
2023/05/30 07:55:09;;;;;;;8.90;4.73;;;12.90;99.90;;;;;;4960005;29;20482;-81
2023/05/30 07:57:40;;;;;;;9.43;4.83;;;12.90;99.90;;;;;;4959274;29;20442;-82
2023/05/30 08:00:10;;;;;;;11.77;4.80;;;12.90;99.90;;;;;;4959283;29;20678;-82
2023/05/30 08:02:41;;;;;;;9.80;5.13;;;13.00;99.90;;;;;;4959657;29;20930;-80
2023/05/30 08:05:09;;;;;;;7.90;4.33;;;13.00;99.90;;;;;;4958644;29;20450;-82
2023/05/30 08:07:45;;;;;;;9.90;4.33;;;13.00;99.90;;;;;;4959142;29;21011;-83
2023/05/30 08:10:13;;;;;;;7.93;4.53;;;13.10;99.90;;;;;;4958618;28;20443;-83
2023/05/30 08:12:41;;;;;;;10.77;4.40;;;13.10;99.90;;;;;;4959048;29;20450;-82
2023/05/30 08:15:10;;;;;;;8.37;4.13;;;13.10;99.90;;;;;;4957551;29;20470;-82
2023/05/30 08:17:40;;;;;;;6.70;4.20;;;13.10;99.90;;;;;;4959648;28;20450;-81
2023/05/30 08:20:09;;;;;;;9.20;4.20;;;13.10;99.90;;;;;;4960469;28;20533;-83
2023/05/30 08:22:37;;;;;;;9.90;3.87;;;13.20;99.90;;;;;;4959698;29;20973;-84
2023/05/30 08:25:08;;;;;;;8.77;4.60;;;13.20;99.90;;;;;;4961234;29;20455;-80
2023/05/30 08:27:37;;;;;;;7.43;4.07;;;13.20;99.90;;;;;;4960692;29;20991;-85
2023/05/30 08:30:07;;;;;;;7.73;3.90;;;13.20;99.90;;;;;;4960775;29;20472;-82
2023/05/30 08:32:37;;;;;;;7.03;3.20;;;13.30;99.90;;;;;;4959353;29;20488;-82
2023/05/30 08:35:08;;;;;;;8.10;3.60;;;13.30;99.90;;;;;;4960015;29;20471;-81
2023/05/30 08:37:36;;;;;;;6.13;3.40;;;13.30;99.90;;;;;;4958585;29;20581;-83
2023/05/30 08:40:05;;;;;;;5.67;3.10;;;13.40;99.90;;;;;;4959181;29;20455;-82
2023/05/30 08:42:35;;;;;;;7.90;4.07;;;13.40;99.90;;;;;;4958427;29;20482;-80
2023/05/30 08:45:04;;;;;;;6.20;3.47;;;13.40;99.90;;;;;;4957863;29;20529;-81
2023/05/30 08:47:34;;;;;;;6.70;3.67;;;13.40;99.90;;;;;;4960876;29;20497;-83
2023/05/30 08:50:04;;;;;;;9.30;5.77;;;13.40;99.90;;;;;;4961856;29;20473;-83
2023/05/30 08:52:33;;;;;;;5.80;3.80;;;13.40;99.90;;;;;;4959847;29;20467;-83
2023/05/30 08:55:07;;;;;;;7.23;3.03;;;13.50;99.90;;;;;;4958859;29;20566;-82
2023/05/30 08:57:42;;;;;;;7.80;3.33;;;13.50;99.90;;;;;;4958102;29;20480;-82
2023/05/30 09:00:13;;;;;;;6.20;3.33;;;13.50;99.90;;;;;;4958837;29;20450;-82
2023/05/30 09:02:44;;;;;;;8.40;3.57;;;13.50;99.90;;;;;;4957720;29;20501;-83
2023/05/30 09:05:15;;;;;;;7.20;3.00;;;13.50;99.90;;;;;;4959988;29;20502;-83
2023/05/30 09:07:45;;;;;;;7.17;4.30;;;13.50;99.90;;;;;;4959392;29;20943;-81
2023/05/30 09:10:14;;;;;;;7.23;3.90;;;13.60;99.90;;;;;;4959189;29;20442;-82
2023/05/30 09:12:44;;;;;;;10.00;4.43;;;13.60;99.90;;;;;;4959538;29;20929;-82
2023/05/30 09:15:12;;;;;;;7.70;3.70;;;13.60;99.90;;;;;;4957673;29;20470;-83
2023/05/30 09:17:40;;;;;;;9.03;4.10;;;13.70;99.90;;;;;;4958039;29;20964;-82
2023/05/30 09:20:11;;;;;;;10.37;4.20;;;13.70;99.90;;;;;;4958850;29;20459;-81
2023/05/30 09:22:41;;;;;;;7.27;3.47;;;13.70;99.90;;;;;;4963727;29;20967;-82
2023/05/30 09:25:10;;;;;;;6.10;2.70;;;13.80;99.90;;;;;;4964241;28;20801;-84
2023/05/30 09:27:40;;;;;;;4.80;2.00;;;13.70;99.90;;;;;;4964705;29;20455;-84
2023/05/30 09:30:11;;;;;;;5.57;2.30;;;13.80;99.90;;;;;;4963906;28;20429;-82
2023/05/30 09:32:40;;;;;;;5.50;2.20;;;13.80;99.90;;;;;;4963821;28;20869;-82
2023/05/30 09:35:10;;;;;;;4.63;2.20;;;13.90;99.90;;;;;;4963644;29;20466;-83
2023/05/30 09:37:41;;;;;;;5.57;2.13;;;13.90;99.90;;;;;;4963806;28;20470;-83
2023/05/30 09:40:11;;;;;;;6.23;2.53;;;14.00;99.90;;;;;;4963862;29;20451;-83
2023/05/30 09:42:40;;;;;;;4.43;2.23;;;14.00;99.90;;;;;;4963594;29;20589;-82
2023/05/30 09:45:12;;;;;;;5.20;2.33;;;14.10;99.90;;;;;;4963815;29;20449;-83
2023/05/30 09:47:41;;;;;;;7.07;2.67;;;14.10;99.90;;;;;;4964020;28;20465;-82
2023/05/30 09:50:12;;;;;;;6.20;2.40;;;14.20;99.90;;;;;;4963405;28;20458;-82
2023/05/30 09:52:41;;;;;;;4.67;2.10;;;14.20;99.90;;;;;;4964204;29;20430;-82
2023/05/30 09:55:14;;;;;;;4.00;1.90;;;14.20;99.90;;;;;;4963467;29;21078;-82
2023/05/30 09:57:48;;;;;;;3.60;1.37;;;14.20;99.90;;;;;;4963042;28;20421;-82
2023/05/30 10:00:23;;;;;;;3.70;1.17;;;14.20;99.90;;;;;;4962508;28;20473;-82
2023/05/30 10:02:55;;;;;;;3.80;1.70;;;14.20;99.90;;;;;;4962118;28;20970;-82
2023/05/30 10:05:26;;;;;;;4.30;2.00;;;14.20;99.90;;;;;;4962658;28;20447;-81
2023/05/30 10:07:55;;;;;;;3.73;1.57;;;14.30;99.90;;;;;;4962257;29;20446;-80
2023/05/30 10:10:25;;;;;;;5.87;2.13;;;14.30;99.90;;;;;;4963625;28;20434;-82
2023/05/30 10:13:00;;;;;;;4.00;2.00;;;14.30;99.90;;;;;;4962360;29;20446;-81
2023/05/30 10:15:29;;;;;;;5.07;2.30;;;14.40;99.90;;;;;;4965550;28;20931;-81
2023/05/30 10:18:05;;;;;;;5.00;1.90;;;14.40;99.90;;;;;;4965698;28;20480;-81
2023/05/30 10:20:36;;;;;;;4.53;2.40;;;14.40;99.90;;;;;;4965873;29;20442;-81
2023/05/30 10:23:07;;;;;;;4.50;1.80;;;14.50;99.90;;;;;;4965462;28;20896;-80
2023/05/30 10:25:37;;;;;;;4.70;2.00;;;14.50;99.90;;;;;;4965777;28;20458;-81
2023/05/30 10:28:07;;;;;;;4.10;1.90;;;14.50;99.90;;;;;;4965014;29;20447;-81
2023/05/30 10:30:37;;;;;;;4.67;2.30;;;14.60;99.90;;;;;;4965448;29;20477;-80
2023/05/30 10:33:08;;;;;;;4.63;2.40;;;14.60;99.90;;;;;;4962709;28;20558;-81
2023/05/30 10:35:37;;;;;;;4.73;2.30;;;14.60;99.90;;;;;;4961997;29;20866;-81
2023/05/30 10:38:07;;;;;;;5.03;2.70;;;14.70;99.90;;;;;;4960517;29;20450;-82
2023/05/30 10:40:44;;;;;;;5.30;3.00;;;14.70;99.90;;;;;;4960761;29;20497;-81
2023/05/30 10:43:27;;;;;;;4.53;2.60;;;14.80;99.90;;;;;;4959274;29;20453;-81
2023/05/30 10:46:13;;;;;;;5.50;2.37;;;14.80;99.90;;;;;;4962099;29;20449;-82
2023/05/30 10:48:50;;;;;;;4.20;2.50;;;14.90;99.90;;;;;;4960796;29;20445;-82
2023/05/30 10:51:20;;;;;;;4.30;2.40;;;14.90;99.90;;;;;;4960809;29;20461;-81
2023/05/30 10:53:51;;;;;;;4.23;2.83;;;14.90;99.90;;;;;;4960442;29;20521;-82
2023/05/30 10:56:36;;;;;;;3.80;2.30;;;15.00;99.90;;;;;;4960116;29;20449;-81
2023/05/30 10:59:12;;;;;;;5.00;2.72;;;15.00;99.90;;;;;;4961235;29;20486;-82
2023/05/30 11:01:42;;;;;;;6.43;2.40;;;15.10;99.90;;;;;;4961208;29;20625;-81
2023/05/30 11:04:12;;;;;;;6.93;2.40;;;15.10;99.90;;;;;;4959524;29;20483;-81
2023/05/30 11:06:43;;;;;;;4.50;2.33;;;15.20;99.90;;;;;;4959224;29;20440;-81
2023/05/30 11:09:14;;;;;;;4.13;2.10;;;15.20;99.90;;;;;;4959719;29;20428;-81
2023/05/30 11:11:48;;;;;;;3.93;1.90;;;15.20;99.90;;;;;;4959504;29;20511;-82
2023/05/30 11:14:16;;;;;;;3.80;1.70;;;15.20;99.90;;;;;;4960675;29;20453;-82
2023/05/30 11:16:59;;;;;;;3.90;2.07;;;15.20;99.90;;;;;;4960402;29;20851;-82
2023/05/30 11:19:28;;;;;;;4.33;1.70;;;15.30;99.90;;;;;;4959530;29;20952;-84
2023/05/30 11:22:01;;;;;;;4.10;1.83;;;15.30;99.90;;;;;;4959260;29;21021;-81
2023/05/30 11:24:30;;;;;;;4.10;1.70;;;15.30;99.90;;;;;;4959714;29;20423;-81
2023/05/30 11:27:07;;;;;;;5.80;1.70;;;15.30;99.90;;;;;;4958820;29;20988;-81
2023/05/30 11:29:47;;;;;;;4.47;1.90;;;15.30;99.90;;;;;;4959963;29;20743;-81
2023/05/30 11:32:22;;;;;;;3.93;1.50;;;15.30;99.90;;;;;;4960314;29;20402;-81
2023/05/30 11:34:59;;;;;;;3.80;1.70;;;15.20;99.90;;;;;;4957975;29;20448;-81
2023/05/30 11:37:35;;;;;;;4.47;2.30;;;15.20;99.90;;;;;;4958174;29;20548;-81
2023/05/30 11:40:05;;;;;;;5.17;1.87;;;15.20;99.90;;;;;;4958350;29;20933;-81
2023/05/30 11:42:34;;;;;;;4.40;2.30;;;15.20;99.90;;;;;;4958318;29;20458;-81
2023/05/30 11:45:02;;;;;;;4.97;2.10;;;15.30;99.90;;;;;;4957354;28;20497;-80
2023/05/30 11:47:32;;;;;;;5.40;2.50;;;15.30;99.90;;;;;;4957847;29;20457;-81
2023/05/30 11:50:13;;;;;;;4.40;2.60;;;15.30;99.90;;;;;;4957921;29;20438;-81
2023/05/30 11:52:41;;;;;;;5.47;2.50;;;15.30;99.90;;;;;;4959088;29;20446;-81
2023/05/30 11:55:10;;;;;;;11.33;2.03;;;15.40;99.90;;;;;;4957978;29;20478;-81
2023/05/30 11:57:38;;;;;;;4.20;2.40;;;15.40;99.90;;;;;;4958333;29;20958;-81
2023/05/30 12:00:11;;;;;;;3.93;2.07;;;15.50;99.90;;;;;;4957418;29;20541;-81
2023/05/30 12:02:42;;;;;;;4.70;2.23;;;15.40;99.90;;;;;;4959334;29;20435;-81
2023/05/30 12:05:11;;;;;;;4.57;2.10;;;15.50;99.90;;;;;;4957464;29;20447;-81
2023/05/30 12:07:39;;;;;;;4.83;2.43;;;15.50;99.90;;;;;;4961692;29;20445;-81
2023/05/30 12:10:08;;;;;;;4.97;2.30;;;15.50;99.90;;;;;;4961320;29;20497;-81
2023/05/30 12:12:37;;;;;;;4.70;2.40;;;15.60;99.90;;;;;;4963245;29;20529;-81
2023/05/30 12:15:08;;;;;;;5.73;1.93;;;15.60;99.90;;;;;;4961897;29;20442;-80
2023/05/30 12:17:41;;;;;;;3.83;1.87;;;15.60;99.90;;;;;;4960490;29;20486;-81
2023/05/30 12:20:16;;;;;;;6.67;1.90;;;15.60;99.90;;;;;;4960860;29;20453;-81
2023/05/30 12:22:46;;;;;;;4.23;2.13;;;15.70;99.90;;;;;;4960644;29;20549;-81
2023/05/30 12:25:15;;;;;;;4.20;1.80;;;15.80;99.90;;;;;;4960168;29;20513;-82
2023/05/30 12:27:44;;;;;;;4.50;2.17;;;15.80;99.90;;;;;;4959738;29;20898;-82
2023/05/30 12:30:14;;;;;;;4.07;1.83;;;15.90;99.90;;;;;;4959961;29;20477;-81
2023/05/30 12:32:44;;;;;;;4.90;2.30;;;15.90;99.90;;;;;;4960188;29;20521;-82
2023/05/30 12:35:14;;;;;;;4.70;1.87;;;16.00;99.90;;;;;;4959961;29;20413;-80
2023/05/30 12:37:42;;;;;;;4.70;1.97;;;16.00;99.90;;;;;;4959429;29;20445;-82
2023/05/30 12:40:10;;;;;;;5.40;2.20;;;16.00;99.90;;;;;;4961075;29;20497;-82
2023/05/30 12:42:43;;;;;;;5.10;2.00;;;16.10;99.90;;;;;;4960954;29;20496;-81
2023/05/30 12:45:12;;;;;;;4.23;2.10;;;16.10;99.90;;;;;;4959469;29;20510;-81
2023/05/30 12:47:40;;;;;;;4.10;1.90;;;16.20;99.90;;;;;;4958556;29;20565;-80
2023/05/30 12:50:11;;;;;;;4.63;2.30;;;16.30;99.90;;;;;;4959597;29;20451;-81
2023/05/30 12:52:42;;;;;;;4.63;2.00;;;16.30;99.90;;;;;;4960947;29;20889;-81
2023/05/30 12:55:12;;;;;;;3.97;1.77;;;16.40;99.90;;;;;;4958603;28;20447;-81